Mc Clellan Airfield
KMCC : now visible

Airfield :











YOU CAN JOIN US ON...

 
LOGIN :

Register | Disclaimer

   EN    FR    IT 

 









Legend :    VFR   Marginal VFR   IFR   Intensive IFR   Very Intensive IFR
Visi :
Ceiling :
>= 8 km
>= 3000ft
5 to 8 km
1000 to 3000 ft
1500m to 5 km
500 to 1000 ft
800 to 1500m
200 to 500 ft
< 800m
< 200 ft
Symbols :   Thunderstorms  Fog  Heavy snow  Heavy precipitations  Wind > 20 kt






- Airport Elevation : 77 ft


KMCC - Mc Clellan

CURRENT METAR :
  • 262255Z AUTO 17008KT 10SM BKN055 18/11 A3020 RMK AO2

EXPIRED METARs :
  • 262235Z AUTO 16007KT 10SM FEW035 BKN055 18/11 A3020 RMK AO2
  • 262215Z AUTO 14006KT 10SM FEW036 BKN055 17/10 A3020 RMK AO2
  • 262155Z AUTO 14005KT 10SM FEW032 BKN050 17/11 A3019 RMK AO2
  • 262135Z AUTO 17005G11KT 10SM SCT030 SCT036 BKN050 17/10 A3020 RMK AO2
  • 262115Z AUTO 20008KT 160V220 10SM SCT032 OVC048 17/11 A3020 RMK AO2
  • 262055Z AUTO 20008KT 10SM OVC047 17/11 A3021 RMK AO2
  • 262035Z AUTO 23012KT 10SM FEW032 OVC047 17/11 A3021 RMK AO2
  • 262015Z AUTO 21010G16KT 10SM SCT026 BKN032 BKN049 17/11 A3021 RMK AO2
  • 261955Z AUTO 22009KT 10SM BKN025 BKN030 BKN036 17/11 A3021 RMK AO2

TAF KMCC
Valid from the 26 at 18:00 until the 27 at 18:00 UTC


261732Z 2618/2718 20009KT 6SM HZ SCT015
TEMPO 2618/2620 4SM BR BKN009
FM262100 20007KT P6SM SCT040
FM270600 16004KT 5SM BR SCT040



MET'MAP, your aeronautical weather chart ! - Copyright ORBIFLY December 2007 - Disclaimer

ORBIFLY MET'MAP TEAM :

Programming & Development : Alexandra Zaïnal
Concept & original design : Baudouin d'Aumeries
Assistance for programming : Marc-Olivier Méhu
Technical & hardware support : Manuel Goepfert

Contact : metmap@orbifly.com




SOURCES & CREDITS :

   NOAA       Earth
Advisory